Time;durP1;ratioP1;P1;durP2;ratioP2;P2;SDS_P1;SDS_P2;PMS_P1;PMS_P2;Temp;Humidity;BMP_temperature;BMP_pressure;BME280_temperature;BME280_humidity;BME280_pressure;Samples;Min_cycle;Max_cycle;Signal;HPM_P1;HPM_P2
2021/12/28 00:00:32;;;;;;;7.45;3.78;;;;;;;-7.03;71.61;99851.72;4915520;29;20419;-61
2021/12/28 00:03:00;;;;;;;7.47;3.72;;;;;;;-7.05;71.34;99856.50;4915346;29;20051;-62
2021/12/28 00:05:27;;;;;;;10.32;3.78;;;;;;;-7.05;70.52;99853.00;4909679;29;20091;-63
2021/12/28 00:07:54;;;;;;;4.45;2.85;;;;;;;-7.03;71.01;99867.09;4897908;29;20159;-58
2021/12/28 00:10:22;;;;;;;8.35;3.40;;;;;;;-7.04;70.40;99870.84;4915373;29;20052;-59
2021/12/28 00:12:49;;;;;;;7.95;3.85;;;;;;;-7.07;70.72;99865.88;4915008;29;20423;-60
2021/12/28 00:18:02;;;;;;;4.55;2.13;;;;;;;-7.04;69.97;99858.19;4916181;29;20056;-59
2021/12/28 00:20:34;;;;;;;8.60;3.35;;;;;;;-7.05;70.42;99853.00;4918832;29;20547;-61
2021/12/28 00:23:03;;;;;;;5.75;3.03;;;;;;;-7.07;69.68;99861.31;4918130;29;20056;-61
2021/12/28 00:25:30;;;;;;;7.28;2.65;;;;;;;-7.09;70.18;99866.09;4917418;29;20435;-59
2021/12/28 00:27:56;;;;;;;8.98;4.15;;;;;;;-7.09;70.64;99866.09;4921452;29;20507;-60
2021/12/28 00:30:24;;;;;;;8.00;3.35;;;;;;;-7.12;69.72;99855.69;4914736;29;20052;-61
2021/12/28 00:32:53;;;;;;;6.00;2.97;;;;;;;-7.11;69.60;99865.47;4914289;29;20143;-61
2021/12/28 00:35:24;;;;;;;7.10;3.65;;;;;;;-7.12;70.14;99858.41;4918414;29;20083;-59
2021/12/28 00:37:50;;;;;;;;;;;;;;;-7.15;70.09;99864.22;4918560;29;20525;-59
2021/12/28 00:40:18;;;;;;;6.97;3.30;;;;;;;-7.17;69.53;99858.19;4918741;29;19981;-59
2021/12/28 00:42:46;;;;;;;8.65;3.30;;;;;;;-7.14;69.27;99865.06;4917938;29;20446;-59
2021/12/28 00:45:13;;;;;;;6.43;3.17;;;;;;;-7.09;69.19;99866.09;4918409;29;20056;-59
2021/12/28 00:47:41;;;;;;;10.63;3.53;;;;;;;-7.06;69.21;99856.72;4918253;29;20056;-61
2021/12/28 00:50:10;;;;;;;8.10;3.70;;;;;;;-7.09;69.54;99863.38;4918303;29;20571;-59
2021/12/28 00:52:38;;;;;;;7.55;3.13;;;;;;;-7.09;69.88;99854.44;4918406;29;20055;-60
2021/12/28 00:55:06;;;;;;;9.73;3.55;;;;;;;-7.07;70.02;99858.59;4918396;29;20144;-59
2021/12/28 00:57:33;;;;;;;7.22;3.50;;;;;;;-7.07;70.33;99864.00;4918350;29;20058;-61
2021/12/28 01:00:00;;;;;;;7.80;3.03;;;;;;;-7.11;69.69;99864.66;4917647;29;20150;-59
2021/12/28 01:02:29;;;;;;;6.97;3.83;;;;;;;-7.12;69.42;99862.97;4918330;29;20052;-59
2021/12/28 01:04:56;;;;;;;9.05;3.67;;;;;;;-7.09;69.96;99871.50;4917765;29;20415;-61
2021/12/28 01:07:23;;;;;;;10.63;3.53;;;;;;;-7.07;70.53;99872.13;4918079;29;20051;-62
2021/12/28 01:09:50;;;;;;;7.30;3.35;;;;;;;-7.06;70.57;99864.81;4917839;29;20063;-63
2021/12/28 01:12:17;;;;;;;8.55;4.00;;;;;;;-7.04;70.00;99870.84;4916536;29;20058;-62
2021/12/28 01:14:44;;;;;;;8.52;3.58;;;;;;;-7.04;70.16;99869.00;4917167;29;20074;-61
2021/12/28 01:17:11;;;;;;;7.88;3.25;;;;;;;-7.02;70.41;99861.50;4918157;29;20058;-59
2021/12/28 01:19:38;;;;;;;7.65;3.40;;;;;;;-7.02;70.60;99872.31;4915932;29;20515;-61
2021/12/28 01:22:05;;;;;;;7.22;3.40;;;;;;;-7.02;69.84;99883.13;4914482;29;20044;-59
2021/12/28 01:24:32;;;;;;;8.80;3.72;;;;;;;-6.99;70.54;99885.38;4917239;29;20143;-61
2021/12/28 01:27:00;;;;;;;8.30;4.00;;;;;;;-6.98;69.73;99881.66;4916112;29;20056;-63
2021/12/28 01:29:28;;;;;;;6.88;3.55;;;;;;;-6.98;70.45;99887.06;4916513;29;20063;-60
2021/12/28 01:31:54;;;;;;;11.50;4.07;;;;;;;-7.01;69.51;99882.09;4909336;29;20048;-62
2021/12/28 01:34:22;;;;;;;9.77;3.83;;;;;;;-7.01;69.51;99892.91;4917399;29;20146;-60
2021/12/28 01:36:48;;;;;;;7.22;3.25;;;;;;;-7.00;70.12;99894.56;4917263;29;20063;-61
2021/12/28 01:39:15;;;;;;;14.60;3.83;;;;;;;-7.01;69.60;99884.78;4917801;29;20052;-62
2021/12/28 01:41:43;;;;;;;7.60;3.67;;;;;;;-7.02;70.16;99891.22;4917012;29;20060;-62
2021/12/28 01:44:11;;;;;;;17.52;5.03;;;;;;;-6.99;70.13;99904.31;4907483;29;20214;-61
2021/12/28 01:46:39;;;;;;;8.02;3.70;;;;;;;-6.97;70.16;99902.25;4914454;29;20052;-62
2021/12/28 01:49:08;;;;;;;6.38;3.40;;;;;;;-7.00;69.48;99899.97;4916997;29;20066;-61
2021/12/28 01:51:36;;;;;;;14.07;3.45;;;;;;;-7.02;70.21;99899.34;4904463;29;20534;-61
2021/12/28 01:54:05;;;;;;;7.15;3.33;;;;;;;-7.02;70.10;99910.16;4924458;29;20083;-60
2021/12/28 01:56:44;;;;;;;8.02;3.00;;;;;;;-6.97;69.95;99904.94;4912891;29;20048;-60
2021/12/28 01:59:13;;;;;;;7.45;3.35;;;;;;;-6.99;70.07;99907.00;4916765;29;20058;-61
2021/12/28 02:01:41;;;;;;;;;;;;;;;-6.97;69.91;99914.91;4916759;29;20084;-61
2021/12/28 02:04:20;;;;;;;6.88;3.30;;;;;;;-6.96;70.50;99912.00;4917300;29;19982;-58
2021/12/28 02:06:48;;;;;;;8.15;3.80;;;;;;;-6.93;70.08;99911.56;4916946;29;20044;-56
2021/12/28 02:09:15;;;;;;;14.48;4.13;;;;;;;-6.92;70.50;99913.25;4916679;29;20519;-59
2021/12/28 02:11:43;;;;;;;7.72;3.42;;;;;;;-6.89;69.82;99912.84;4916549;29;20512;-59
2021/12/28 02:14:11;;;;;;;12.30;3.38;;;;;;;-6.90;70.53;99911.16;4917071;29;20146;-58
2021/12/28 02:16:42;;;;;;;6.32;3.08;;;;;;;-6.89;70.05;99907.44;4916446;29;20060;-57
2021/12/28 02:19:12;;;;;;;6.57;3.42;;;;;;;-6.89;70.54;99918.25;4915766;29;20056;-58
2021/12/28 02:21:40;;;;;;;7.18;2.88;;;;;;;-6.89;69.96;99923.66;4916275;29;20062;-57
2021/12/28 02:24:08;;;;;;;4.18;2.60;;;;;;;-6.91;70.12;99920.31;4916355;29;20056;-56
2021/12/28 02:26:35;;;;;;;5.70;3.58;;;;;;;-6.95;70.07;99924.50;4916342;29;20523;-59
2021/12/28 02:29:04;;;;;;;6.80;3.28;;;;;;;-6.94;69.93;99926.16;4912998;29;20060;-59
2021/12/28 02:31:31;;;;;;;8.05;3.90;;;;;;;-6.91;70.96;99931.13;4915442;29;20064;-59
2021/12/28 02:33:58;;;;;;;9.40;3.60;;;;;;;-6.95;70.25;99926.34;4916233;29;20131;-60
2021/12/28 02:36:26;;;;;;;7.40;2.97;;;;;;;-7.01;70.97;99929.91;4916451;29;20044;-59
2021/12/28 02:38:53;;;;;;;7.55;3.25;;;;;;;-7.05;70.68;99934.91;4916382;29;20056;-60
2021/12/28 02:41:20;;;;;;;6.25;2.83;;;;;;;-7.06;70.32;99927.00;4916597;29;20070;-61
2021/12/28 02:43:49;;;;;;;6.85;3.63;;;;;;;-7.06;69.95;99933.25;4915674;29;20077;-60
2021/12/28 02:46:17;;;;;;;6.60;3.20;;;;;;;-7.10;71.16;99926.59;4916451;29;20055;-60
2021/12/28 02:48:44;;;;;;;10.35;3.03;;;;;;;-7.08;70.12;99940.72;4915552;29;20526;-60
2021/12/28 02:51:14;;;;;;;10.95;2.92;;;;;;;-7.01;70.02;99932.59;4916617;29;20477;-61
2021/12/28 02:53:45;;;;;;;5.90;2.42;;;;;;;-7.03;71.13;99942.78;4906479;29;20068;-61
2021/12/28 02:56:17;;;;;;;8.40;3.20;;;;;;;-7.00;70.17;99945.91;4908375;29;20060;-61
2021/12/28 02:58:50;;;;;;;5.63;3.05;;;;;;;-6.95;71.04;99945.28;4915542;29;20055;-60
2021/12/28 03:01:24;;;;;;;7.30;3.60;;;;;;;-6.94;70.61;99942.38;4905344;29;20052;-61
2021/12/28 03:03:54;;;;;;;5.38;2.80;;;;;;;-6.92;70.02;99948.41;4915120;29;20059;-61
2021/12/28 03:06:23;;;;;;;5.82;2.70;;;;;;;-6.94;69.78;99953.19;4916223;29;20090;-60
2021/12/28 03:08:54;;;;;;;4.32;2.55;;;;;;;-6.99;70.31;99952.97;4915428;29;20048;-60
2021/12/28 03:11:27;;;;;;;7.15;3.00;;;;;;;-7.05;70.05;99951.09;4915867;29;20098;-60
2021/12/28 03:13:58;;;;;;;5.47;2.60;;;;;;;-7.06;70.25;99949.47;4915373;29;20421;-61
2021/12/28 03:16:27;;;;;;;6.03;3.05;;;;;;;-7.12;69.74;99946.75;4916033;29;20463;-61
2021/12/28 03:18:55;;;;;;;10.73;3.03;;;;;;;-7.12;69.98;99949.47;4915235;29;20084;-61
2021/12/28 03:21:23;;;;;;;7.38;3.40;;;;;;;-7.10;70.16;99950.94;4915951;29;20123;-62
2021/12/28 03:23:52;;;;;;;5.63;3.03;;;;;;;-7.09;70.07;99944.47;4902821;29;20067;-61
2021/12/28 03:26:19;;;;;;;5.55;2.72;;;;;;;-7.05;69.99;99945.72;4916261;29;20047;-61
2021/12/28 03:28:47;;;;;;;7.65;3.30;;;;;;;-7.02;69.62;99949.88;4915697;29;20059;-60
2021/12/28 03:31:17;;;;;;;5.88;3.22;;;;;;;-7.03;69.67;99951.75;4916018;29;20056;-60
2021/12/28 03:33:47;;;;;;;6.88;3.35;;;;;;;-7.07;70.46;99947.81;4915377;29;20056;-60
2021/12/28 03:36:16;;;;;;;6.38;3.40;;;;;;;-7.12;70.54;99955.69;4916202;29;20052;-59
2021/12/28 03:38:43;;;;;;;5.05;2.95;;;;;;;-7.13;69.92;99958.63;4915089;29;20086;-59
2021/12/28 03:41:11;;;;;;;6.00;2.80;;;;;;;-7.22;70.28;99949.91;4915747;29;20052;-60
2021/12/28 03:43:42;;;;;;;8.00;3.40;;;;;;;-7.21;70.01;99948.00;4915487;29;20067;-60
2021/12/28 03:46:09;;;;;;;;;;;;;;;-7.28;69.79;99949.91;4916222;29;20052;-58
2021/12/28 03:48:38;;;;;;;3.45;1.85;;;;;;;-7.34;69.85;99956.13;4915114;29;20378;-62
2021/12/28 03:51:06;;;;;;;8.52;3.45;;;;;;;-7.39;69.95;99954.06;4915455;29;20112;-60
2021/12/28 03:53:33;;;;;;;6.90;3.20;;;;;;;-7.39;70.60;99959.47;4917377;29;20566;-59
2021/12/28 03:56:02;;;;;;;6.38;2.80;;;;;;;-7.40;70.33;99960.50;4919664;29;20067;-61
2021/12/28 03:58:29;;;;;;;5.85;2.83;;;;;;;-7.39;70.66;99958.63;4909510;29;20059;-61
2021/12/28 04:00:56;;;;;;;9.85;3.30;;;;;;;-7.36;70.57;99961.75;4919118;29;20211;-60
2021/12/28 04:03:24;;;;;;;10.52;3.08;;;;;;;-7.29;70.41;99961.75;4919294;29;20087;-61
2021/12/28 04:05:51;;;;;;;6.07;3.10;;;;;;;-7.27;70.61;99963.19;4901865;29;20147;-61
2021/12/28 04:08:22;;;;;;;6.18;2.92;;;;;;;-7.24;70.17;99965.47;4912765;29;20056;-61
2021/12/28 04:11:37;;;;;;;6.90;2.80;;;;;;;-7.20;69.63;99965.91;4918732;29;20052;-61
2021/12/28 04:13:38;;;;;;;5.10;2.60;;;;;;;-7.16;69.49;99964.44;4908442;29;20432;-61
2021/12/28 04:16:05;;;;;;;7.07;2.78;;;;;;;-7.11;69.92;99965.47;4918972;29;20048;-62
2021/12/28 04:18:32;;;;;;;7.97;3.00;;;;;;;-7.03;69.91;99973.38;4921871;29;20090;-60
2021/12/28 04:21:00;;;;;;;5.65;2.83;;;;;;;-6.99;69.41;99971.09;4918787;29;20048;-60
2021/12/28 04:23:27;;;;;;;5.90;2.63;;;;;;;-6.99;70.00;99966.50;4918344;29;20151;-60
2021/12/28 04:25:54;;;;;;;6.47;3.30;;;;;;;-6.97;70.55;99969.81;4918441;29;20052;-61
2021/12/28 04:28:21;;;;;;;8.77;3.33;;;;;;;-6.95;70.37;99961.50;4918681;29;20064;-61
2021/12/28 04:30:48;;;;;;;13.68;3.20;;;;;;;-6.91;70.18;99968.13;4916745;29;20448;-61
2021/12/28 04:33:15;;;;;;;4.90;3.03;;;;;;;-6.87;69.52;99975.63;4918628;29;20083;-60
2021/12/28 04:35:42;;;;;;;8.63;3.67;;;;;;;-6.88;69.92;99976.69;4916751;29;20052;-61
2021/12/28 04:38:09;;;;;;;6.20;3.15;;;;;;;-6.88;70.18;99968.56;4918780;29;20127;-61
2021/12/28 04:40:38;;;;;;;5.78;3.17;;;;;;;-6.88;69.93;99976.69;4918521;29;20534;-60
2021/12/28 04:43:05;;;;;;;9.52;3.17;;;;;;;-6.85;69.87;99978.13;4918509;29;20044;-60
2021/12/28 04:45:32;;;;;;;11.35;4.35;;;;;;;-6.79;70.51;99988.09;4917864;29;20426;-61
2021/12/28 04:47:59;;;;;;;7.65;3.20;;;;;;;-6.82;69.44;99991.22;4918280;29;20090;-61
2021/12/28 04:50:26;;;;;;;6.10;3.10;;;;;;;-6.80;70.27;99987.28;4918055;29;20052;-60
2021/12/28 04:52:56;;;;;;;11.20;3.90;;;;;;;-6.78;69.80;99984.38;4918251;29;20525;-62
2021/12/28 04:55:23;;;;;;;9.68;3.55;;;;;;;-6.76;70.27;99993.06;4918025;29;20048;-62
2021/12/28 04:57:50;;;;;;;8.82;3.67;;;;;;;-6.77;69.52;99986.84;4916754;29;20044;-61
2021/12/28 05:00:21;;;;;;;6.68;3.03;;;;;;;-6.71;70.25;99996.84;4917668;29;20130;-60
2021/12/28 05:02:48;;;;;;;9.15;3.55;;;;;;;-6.75;70.02;99990.16;4915320;29;20143;-61
2021/12/28 05:05:15;;;;;;;6.47;2.88;;;;;;;-6.76;69.94;99999.34;4912450;29;20059;-62
2021/12/28 05:07:42;;;;;;;7.68;3.47;;;;;;;-6.77;70.24;100000.38;4918094;29;20052;-61
2021/12/28 05:10:10;;;;;;;5.30;2.90;;;;;;;-6.80;69.33;100013.47;4918446;29;20059;-61
2021/12/28 05:12:37;;;;;;;9.35;3.28;;;;;;;-6.89;69.87;100010.19;4917296;29;20508;-63
2021/12/28 05:15:06;;;;;;;6.22;2.80;;;;;;;-6.91;69.71;100023.06;4917191;29;20052;-60
2021/12/28 05:17:33;;;;;;;7.78;2.85;;;;;;;-6.91;69.41;100017.66;4917416;29;20051;-65
2021/12/28 05:20:00;;;;;;;6.97;2.97;;;;;;;-6.92;69.61;100021.41;4901211;29;20147;-65
2021/12/28 05:22:29;;;;;;;6.60;2.92;;;;;;;-6.97;69.18;100026.59;4917141;29;20048;-65
2021/12/28 05:24:56;;;;;;;5.97;3.17;;;;;;;-6.98;69.86;100026.81;4917312;29;20063;-64
2021/12/28 05:27:23;;;;;;;5.07;2.30;;;;;;;-7.00;69.64;100029.72;4917173;29;20086;-64
2021/12/28 05:29:50;;;;;;;8.68;2.63;;;;;;;-6.97;68.88;100034.72;4917363;29;20059;-64
2021/12/28 05:32:17;;;;;;;12.40;2.85;;;;;;;-6.98;69.16;100035.75;4917650;29;20058;-57
2021/12/28 05:34:44;;;;;;;7.03;3.35;;;;;;;-6.97;69.24;100037.41;4917262;29;20143;-55
2021/12/28 05:37:15;;;;;;;7.43;3.13;;;;;;;-6.95;68.90;100043.47;4917165;29;20060;-57
2021/12/28 05:39:43;;;;;;;9.40;3.17;;;;;;;-6.98;69.83;100041.16;4917206;29;20067;-57
2021/12/28 05:42:10;;;;;;;10.68;2.78;;;;;;;-6.96;68.89;100044.47;4916776;29;20052;-56
2021/12/28 05:44:37;;;;;;;5.70;3.05;;;;;;;-6.93;69.37;100048.66;4917080;29;20134;-60
2021/12/28 05:47:04;;;;;;;7.03;3.42;;;;;;;-6.85;69.48;100049.25;4916797;29;20515;-59
2021/12/28 05:49:31;;;;;;;4.13;2.65;;;;;;;-6.82;69.49;100038.03;4917114;29;20415;-60
2021/12/28 05:51:58;;;;;;;8.45;3.15;;;;;;;-6.81;69.73;100047.78;4916909;29;20051;-59
2021/12/28 05:54:25;;;;;;;9.23;3.88;;;;;;;-6.77;69.86;100046.34;4916541;29;20056;-60
2021/12/28 05:56:52;;;;;;;12.23;3.83;;;;;;;-6.72;69.56;100049.25;4917424;29;20064;-59
2021/12/28 05:59:19;;;;;;;9.27;3.40;;;;;;;-6.65;69.23;100044.69;4914207;29;20407;-56
2021/12/28 06:01:46;;;;;;;8.50;3.83;;;;;;;-6.61;69.65;100045.06;4913117;29;20138;-65
2021/12/28 06:04:14;;;;;;;14.32;3.53;;;;;;;-6.60;69.68;100052.97;4918711;29;20472;-61
2021/12/28 06:06:41;;;;;;;9.27;3.50;;;;;;;-6.55;69.70;100045.06;4916176;29;20056;-60
2021/12/28 06:09:08;;;;;;;7.88;3.17;;;;;;;-6.50;69.51;100053.41;4914262;29;20056;-59
2021/12/28 06:11:35;;;;;;;7.80;3.60;;;;;;;-6.50;69.62;100055.25;4916514;29;20135;-60
2021/12/28 06:14:02;;;;;;;7.10;3.35;;;;;;;-6.51;69.60;100050.91;4916309;29;20064;-61
2021/12/28 06:16:34;;;;;;;9.35;3.38;;;;;;;-6.57;69.41;100049.84;4916002;29;20067;-61
2021/12/28 06:19:03;;;;;;;6.50;2.90;;;;;;;-6.56;69.42;100051.53;4916308;29;20499;-61
2021/12/28 06:21:31;;;;;;;9.48;3.70;;;;;;;-6.53;69.98;100047.56;4916363;29;20526;-61
2021/12/28 06:23:59;;;;;;;6.80;3.20;;;;;;;-6.51;69.28;100050.91;4915954;29;20528;-61
2021/12/28 06:26:28;;;;;;;11.25;3.58;;;;;;;-6.47;69.33;100050.28;4916449;29;20048;-61
2021/12/28 06:28:56;;;;;;;8.60;3.63;;;;;;;-6.44;69.08;100060.66;4915939;29;20098;-62
2021/12/28 06:31:23;;;;;;;8.27;4.05;;;;;;;-6.41;69.51;100049.41;4907918;29;20055;-61
2021/12/28 06:33:50;;;;;;;10.52;3.90;;;;;;;-6.39;68.97;100066.28;4915980;29;20055;-60
2021/12/28 06:36:17;;;;;;;10.25;3.65;;;;;;;-6.35;69.36;100061.25;4916190;29;20055;-61
2021/12/28 06:38:44;;;;;;;6.53;3.38;;;;;;;-6.33;69.10;100067.31;4916186;29;20056;-62
2021/12/28 06:41:10;;;;;;;8.90;3.88;;;;;;;-6.31;69.27;100068.75;4916156;29;20066;-61
2021/12/28 06:43:37;;;;;;;9.27;3.90;;;;;;;-6.30;69.01;100073.13;4916394;29;20052;-62
2021/12/28 06:46:04;;;;;;;17.10;6.90;;;;;;;-6.24;69.36;100079.56;4915549;29;20131;-60
2021/12/28 06:48:31;;;;;;;9.02;3.97;;;;;;;-6.21;69.28;100085.41;4908735;29;20056;-61
2021/12/28 06:50:59;;;;;;;8.25;4.13;;;;;;;-6.17;69.27;100085.78;4914692;29;20056;-60
2021/12/28 06:53:25;;;;;;;11.88;3.67;;;;;;;-6.16;69.31;100084.75;4915878;29;20147;-62
2021/12/28 06:55:52;;;;;;;8.77;3.65;;;;;;;-6.13;69.04;100089.75;4915892;29;20066;-65
2021/12/28 06:58:19;;;;;;;9.93;3.88;;;;;;;-6.11;69.27;100096.63;4914589;29;20448;-64
2021/12/28 07:00:46;;;;;;;11.93;3.92;;;;;;;-6.11;69.53;100098.47;4915783;29;20056;-65
2021/12/28 07:03:13;;;;;;;7.65;3.35;;;;;;;-6.10;69.20;100098.25;4915727;29;20044;-64
2021/12/28 07:05:40;;;;;;;10.15;4.43;;;;;;;-6.15;69.19;100095.38;4915755;29;20083;-64
2021/12/28 07:08:07;;;;;;;7.22;3.65;;;;;;;-6.13;69.07;100106.00;4912920;29;20052;-64
2021/12/28 07:10:34;;;;;;;7.75;3.75;;;;;;;-6.16;68.78;100104.53;4915716;29;20055;-65
2021/12/28 07:13:01;;;;;;;8.45;3.72;;;;;;;-6.17;68.91;100102.88;4915574;29;20056;-64
2021/12/28 07:15:28;;;;;;;9.13;3.30;;;;;;;-6.17;68.63;100102.88;4915990;29;20056;-66
2021/12/28 07:17:55;;;;;;;6.53;3.35;;;;;;;-6.15;68.68;100105.38;4915634;29;20056;-65
2021/12/28 07:20:22;;;;;;;8.02;3.88;;;;;;;-6.17;68.85;100102.88;4915953;29;20130;-64
2021/12/28 07:22:49;;;;;;;7.38;3.88;;;;;;;-6.08;68.68;100114.28;4915375;29;20052;-64
2021/12/28 07:25:16;;;;;;;6.57;3.13;;;;;;;-6.05;68.69;100111.16;4915611;29;20151;-65
2021/12/28 07:27:44;;;;;;;6.72;3.28;;;;;;;-6.03;68.64;100109.09;4916682;29;20197;-64
2021/12/28 07:30:13;;;;;;;7.25;3.20;;;;;;;-6.03;69.12;100115.34;4919653;29;20131;-64
2021/12/28 07:32:40;;;;;;;7.63;3.30;;;;;;;-5.99;68.97;100126.56;4917694;29;20055;-63
2021/12/28 07:35:08;;;;;;;9.18;3.28;;;;;;;-5.97;68.77;100122.63;4913477;29;20052;-64
2021/12/28 07:37:36;;;;;;;10.25;3.47;;;;;;;-5.99;69.06;100122.00;4915807;29;20051;-65
2021/12/28 07:40:04;;;;;;;16.83;5.32;;;;;;;-5.96;69.01;100126.97;4919684;29;20056;-64
2021/12/28 07:42:31;;;;;;;13.27;4.38;;;;;;;-5.93;68.31;100129.25;4918861;29;20063;-64
2021/12/28 07:44:59;;;;;;;11.95;3.83;;;;;;;-5.86;68.15;100127.34;4919406;29;20060;-64
2021/12/28 07:47:26;;;;;;;15.75;5.57;;;;;;;-5.79;68.38;100125.44;4919090;29;20055;-64
2021/12/28 07:49:53;;;;;;;8.70;3.97;;;;;;;-5.72;68.29;100128.13;4916029;29;20131;-64
2021/12/28 07:52:20;;;;;;;9.55;3.85;;;;;;;-5.72;68.44;100131.66;4919485;29;20048;-64
2021/12/28 07:54:46;;;;;;;8.50;4.25;;;;;;;-5.68;68.29;100134.78;4916909;29;20060;-64
2021/12/28 07:57:13;;;;;;;8.55;4.35;;;;;;;-5.69;68.21;100133.94;4919413;29;20143;-64
2021/12/28 07:59:40;;;;;;;14.15;4.68;;;;;;;-5.68;68.17;100135.59;4918460;29;20427;-64
2021/12/28 08:02:07;;;;;;;12.88;4.88;;;;;;;-5.69;68.01;100123.09;4918953;29;20048;-64
2021/12/28 08:04:35;;;;;;;13.45;5.05;;;;;;;-5.60;68.24;100131.00;4918409;29;20055;-64
2021/12/28 08:07:02;;;;;;;10.45;4.47;;;;;;;-5.53;67.94;100143.50;4919098;29;20052;-64
2021/12/28 08:09:29;;;;;;;7.93;4.07;;;;;;;-5.51;68.11;100129.72;4918492;29;20415;-64
2021/12/28 08:11:55;;;;;;;8.43;3.90;;;;;;;-5.56;67.97;100127.66;4919034;29;20048;-65
2021/12/28 08:14:23;;;;;;;13.48;4.78;;;;;;;-5.56;68.02;100126.81;4918793;29;20060;-65
2021/12/28 08:16:50;;;;;;;17.13;4.43;;;;;;;-5.56;67.86;100122.22;4918953;29;20098;-64
2021/12/28 08:19:17;;;;;;;11.90;5.43;;;;;;;-5.51;68.05;100125.09;4918492;29;20048;-65
2021/12/28 08:21:44;;;;;;;13.55;4.97;;;;;;;-5.40;68.23;100131.72;4917315;29;20055;-65
2021/12/28 08:24:12;;;;;;;11.05;4.43;;;;;;;-5.40;68.08;100138.00;4918752;29;20064;-61
2021/12/28 08:26:39;;;;;;;12.63;4.95;;;;;;;-5.44;68.16;100130.50;4913001;29;20053;-60
2021/12/28 08:29:06;;;;;;;9.35;4.90;;;;;;;-5.42;68.13;100125.72;4914748;29;20044;-62
2021/12/28 08:31:34;;;;;;;18.92;4.53;;;;;;;-5.35;68.06;100140.06;4915894;29;20059;-62
2021/12/28 08:34:03;;;;;;;8.23;3.85;;;;;;;-5.31;68.27;100130.44;4918023;29;20055;-59
2021/12/28 08:36:30;;;;;;;10.25;4.28;;;;;;;-5.26;67.84;100122.50;4916531;29;20411;-62
2021/12/28 08:38:57;;;;;;;7.70;4.30;;;;;;;-5.16;67.57;100112.00;4910991;29;20401;-61
2021/12/28 08:41:24;;;;;;;12.48;4.53;;;;;;;-5.13;67.85;100122.44;4916685;29;20044;-62
2021/12/28 08:43:51;;;;;;;10.45;4.00;;;;;;;-5.08;68.19;100123.44;4910071;29;20047;-61
2021/12/28 08:46:18;;;;;;;9.70;4.45;;;;;;;-4.95;67.75;100119.81;4917121;29;20062;-62
2021/12/28 08:48:45;;;;;;;9.90;4.78;;;;;;;-4.89;67.53;100114.34;4917646;29;20048;-60
2021/12/28 08:51:12;;;;;;;5.95;3.55;;;;;;;-4.77;67.15;100123.44;4917321;29;20134;-62
2021/12/28 08:53:39;;;;;;;12.80;4.35;;;;;;;-4.69;66.92;100123.16;4916991;29;20051;-62
2021/12/28 08:56:06;;;;;;;12.63;4.68;;;;;;;-4.69;67.22;100114.19;4917616;29;20064;-60
2021/12/28 08:58:33;;;;;;;8.93;3.92;;;;;;;-4.83;66.70;100123.50;4913947;29;20057;-61
2021/12/28 09:01:01;;;;;;;9.98;3.95;;;;;;;-5.07;67.83;100122.38;4913155;29;20078;-61
2021/12/28 09:03:28;;;;;;;10.27;4.38;;;;;;;-4.95;67.56;100130.69;4908115;29;20048;-60
2021/12/28 09:05:55;;;;;;;11.55;4.82;;;;;;;-4.38;66.81;100128.53;4912423;29;20112;-62
2021/12/28 09:08:22;;;;;;;10.40;5.38;;;;;;;-3.44;64.64;100125.47;4917297;29;20088;-62
2021/12/28 09:10:49;;;;;;;10.32;5.28;;;;;;;-3.16;64.29;100129.28;4917140;29;20052;-62
2021/12/28 09:13:17;;;;;;;12.00;4.75;;;;;;;-3.46;64.73;100138.44;4916601;29;20516;-61
2021/12/28 09:15:46;;;;;;;14.25;4.95;;;;;;;-3.89;65.37;100122.22;4917260;29;20455;-60
2021/12/28 09:18:13;;;;;;;10.57;4.70;;;;;;;-4.12;65.86;100132.88;4916394;29;20048;-62
2021/12/28 09:20:40;;;;;;;11.90;4.55;;;;;;;-4.16;65.91;100134.41;4912392;29;20071;-60
2021/12/28 09:23:09;;;;;;;12.27;4.82;;;;;;;-4.29;65.08;100132.63;4916547;29;20457;-60
2021/12/28 09:25:37;;;;;;;13.25;5.45;;;;;;;-4.47;65.90;100129.06;4916469;29;20055;-61
2021/12/28 09:28:06;;;;;;;9.02;4.15;;;;;;;-4.74;65.75;100139.25;4914124;29;20060;-61
2021/12/28 09:30:35;;;;;;;16.60;5.07;;;;;;;-4.85;65.64;100144.56;4911095;29;20075;-61
2021/12/28 09:33:02;;;;;;;11.98;5.05;;;;;;;-4.87;65.83;100133.94;4914904;29;20044;-61
2021/12/28 09:35:29;;;;;;;9.20;4.05;;;;;;;-4.94;66.13;100126.91;4917046;29;20055;-62
2021/12/28 09:37:56;;;;;;;12.05;5.70;;;;;;;-4.98;66.43;100133.81;4916170;29;21140;-62
2021/12/28 09:40:32;;;;;;;13.43;5.15;;;;;;;-5.10;66.00;100127.44;4915775;29;20112;-62
2021/12/28 09:42:59;;;;;;;18.25;6.60;;;;;;;-5.17;66.00;100127.47;4915499;29;20040;-62
2021/12/28 09:45:27;;;;;;;20.00;5.97;;;;;;;-5.25;66.55;100132.28;4915074;29;20091;-61
2021/12/28 09:47:55;;;;;;;14.75;5.57;;;;;;;-5.23;66.17;100138.31;4915042;29;20064;-60
2021/12/28 09:50:22;;;;;;;15.05;5.57;;;;;;;-5.26;66.64;100133.34;4916312;29;20056;-61
2021/12/28 09:52:50;;;;;;;17.63;5.35;;;;;;;-5.31;66.78;100127.72;4916101;29;20052;-59
2021/12/28 09:55:21;;;;;;;11.85;5.32;;;;;;;-5.38;66.20;100141.34;4913940;29;20067;-59
2021/12/28 09:57:50;;;;;;;12.20;4.97;;;;;;;-5.39;66.71;100149.69;4907392;29;20060;-59
2021/12/28 10:00:19;;;;;;;14.52;5.18;;;;;;;-5.41;66.46;100155.31;4916452;29;20530;-62
2021/12/28 10:03:06;;;;;;;14.82;4.22;;;;;;;-5.43;66.68;100151.13;4914211;29;20475;-62
2021/12/28 10:05:34;;;;;;;10.20;4.82;;;;;;;-5.45;66.35;100153.25;4916583;29;20051;-60
2021/12/28 10:08:04;;;;;;;11.23;4.88;;;;;;;-5.46;66.29;100162.41;4915989;29;20056;-62
2021/12/28 10:10:43;;;;;;;11.00;5.50;;;;;;;-5.43;66.82;100156.56;4913058;29;20475;-62
2021/12/28 10:13:19;;;;;;;10.18;4.63;;;;;;;-5.41;66.74;100168.03;4915763;29;20052;-62
2021/12/28 10:15:48;;;;;;;16.40;6.38;;;;;;;-5.46;67.18;100173.25;4907272;29;20546;-61
2021/12/28 10:18:15;;;;;;;12.50;5.68;;;;;;;-5.43;66.90;100176.38;4905668;29;20092;-60
2021/12/28 10:20:52;;;;;;;13.43;5.85;;;;;;;-5.41;66.74;100168.03;4909925;29;20076;-59
2021/12/28 10:23:22;;;;;;;18.17;5.25;;;;;;;-5.43;66.77;100180.94;4914001;29;20060;-63
2021/12/28 10:25:51;;;;;;;;;;;;;;;-5.47;66.91;100174.31;4914021;29;20059;-62
2021/12/28 10:28:21;;;;;;;15.00;5.40;;;;;;;-5.49;66.93;100176.38;4912566;29;20386;-62
2021/12/28 10:30:53;;;;;;;15.35;5.85;;;;;;;-5.50;66.97;100174.72;4909582;29;20048;-61
2021/12/28 10:33:23;;;;;;;11.10;5.38;;;;;;;-5.50;66.80;100178.28;4913183;29;20080;-62
2021/12/28 10:35:58;;;;;;;10.38;4.50;;;;;;;-5.53;67.11;100175.16;4915342;29;20434;-61
2021/12/28 10:38:27;;;;;;;13.48;5.25;;;;;;;-5.54;67.31;100189.78;4915108;29;20052;-61
2021/12/28 10:41:01;;;;;;;9.70;4.60;;;;;;;-5.56;67.22;100186.44;4907724;29;20146;-62
2021/12/28 10:43:32;;;;;;;7.93;4.57;;;;;;;-5.62;66.92;100193.53;4911095;29;20044;-63
2021/12/28 10:46:12;;;;;;;11.55;4.55;;;;;;;-5.67;67.01;100191.47;4913822;29;20136;-61
2021/12/28 10:48:50;;;;;;;11.73;5.10;;;;;;;-5.72;66.56;100183.13;4914588;29;20100;-61
2021/12/28 10:51:31;;;;;;;13.13;5.15;;;;;;;-5.78;66.91;100189.41;4914118;29;20115;-60
2021/12/28 10:56:36;;;;;;;12.80;5.28;;;;;;;-5.75;67.19;100188.97;4915146;29;20048;-62
2021/12/28 10:59:05;;;;;;;11.05;5.10;;;;;;;-5.73;66.92;100184.19;4914290;29;20147;-61
2021/12/28 11:01:37;;;;;;;12.95;5.60;;;;;;;-5.70;67.27;100181.06;4912985;29;20080;-61
2021/12/28 11:04:08;;;;;;;10.90;4.80;;;;;;;-5.69;67.06;100182.72;4914692;29;20503;-61
2021/12/28 11:06:59;;;;;;;14.15;4.90;;;;;;;-5.68;67.40;100178.94;4910899;29;21241;-62
2021/12/28 11:09:26;;;;;;;11.23;4.90;;;;;;;-5.69;66.73;100176.44;4907101;29;20056;-62
2021/12/28 11:11:54;;;;;;;16.30;4.75;;;;;;;-5.70;67.30;100181.06;4912496;29;20067;-61
2021/12/28 11:14:29;;;;;;;9.00;4.28;;;;;;;-5.72;67.17;100180.44;4926133;29;20131;-60
2021/12/28 11:17:02;;;;;;;10.90;4.10;;;;;;;-5.73;66.91;100188.78;4915115;29;20522;-61
2021/12/28 11:19:33;;;;;;;10.00;4.43;;;;;;;-5.73;67.01;100181.47;4915233;29;20055;-61
2021/12/28 11:22:03;;;;;;;7.80;3.90;;;;;;;-5.74;66.78;100193.34;4915302;29;20066;-60
2021/12/28 11:24:32;;;;;;;;;;;;;;;-5.77;67.17;100191.06;4915709;29;20064;-61
2021/12/28 11:27:00;;;;;;;9.45;4.35;;;;;;;-5.76;67.17;100192.75;4914950;29;19927;-61
2021/12/28 11:29:47;;;;;;;12.55;4.28;;;;;;;-5.76;66.99;100187.31;4914789;29;20108;-61
2021/12/28 11:32:17;;;;;;;7.32;4.32;;;;;;;-5.79;67.25;100176.91;4912139;29;20052;-60
2021/12/28 11:34:45;;;;;;;12.00;4.38;;;;;;;-5.79;67.05;100187.75;4915156;29;20504;-61
2021/12/28 11:37:19;;;;;;;10.27;3.95;;;;;;;-5.81;67.41;100184.41;4915180;29;20052;-63